Headquarters, Valles Caldera, New Mexico Weather observations

Data are for 10 minute period ending at time listed.
 Day   Time   Solar   Ave.   Ave.  Ave.  Vector  Max.   Baro.   Total    
  of    of     Rad.   Air    Rel.  Wind   Wind   Wind  Press.  Precip.   
Year   Day            Temp.  Hum.  Speed  Dir.   Gust                    
2014   (MST)  Kw/m2    F      %     mph   deg.    mph    mb.     in.     
-------------------------------------------------------------------------
 265   19:20   0.00   52.9    87    2.7   262     6.6   746.3    0.00 
 265   19:30   0.00   54.6    85    2.8   279     4.8   746.4    0.00 
 265   19:40   0.00   55.1    84    1.5   228     5.4   746.5    0.00 
 265   19:50   0.00   55.3    86    3.0   246     7.8   746.4    0.00 
 265   20:00   0.00   55.2    86    3.2   211     7.2   746.6    0.00 
 265   20:10   0.00   54.9    87    2.5   222     4.8   746.6    0.00 
 265   20:20   0.00   53.9    86    2.8   269     5.4   746.7    0.00 
 265   20:30   0.00   53.2    88    2.9   240     5.4   746.7    0.00 
 265   20:40   0.00   52.7    87    3.0   256     4.8   746.7    0.00 
 265   20:50   0.00   51.6    86    3.1   273     4.8   746.7    0.00 
 265   21:00   0.00   49.9    87    3.6   273     4.8   746.8    0.00 
 265   21:10   0.00   49.0    89    3.3   287     4.2   746.7    0.00 
 265   21:20   0.00   48.8    90    2.8   287     4.2   746.7    0.00 
 265   21:30   0.00   49.7    90    3.9   282     5.4   746.7    0.00 
 265   21:40   0.00   51.5    91    4.5   229     6.6   746.7    0.00 
 265   21:50   0.00   51.5    89    3.3   217     5.4   746.7    0.00 
 265   22:00   0.00   51.3    90    3.3   203     4.8   746.8    0.00 
 265   22:10   0.00   52.2    92    2.8   197     4.8   746.9    0.00 
 265   22:20   0.00   52.0    91    2.5   209     3.6   746.9    0.00 
 265   22:30   0.00   52.1    91    2.2   195     3.6   746.9    0.00 
 265   22:40   0.00   52.4    92    2.9   277     6.0   746.9    0.00 
 265   22:50   0.00   53.3    91    3.6   240     6.0   746.8    0.00 
 265   23:00   0.00   53.2    90    2.8   188     6.6   746.8    0.00 
 265   23:10   0.00   53.4    90    4.6   221     9.0   746.9    0.00 
 265   23:20   0.00   53.7    90    4.9   232     8.4   746.9    0.00 
 265   23:30   0.00   53.8    89    5.5   222     9.0   746.8    0.00 
 265   23:40   0.00   54.0    89    5.5   235     8.4   746.8    0.00 
 265   23:50   0.00   53.9    89    5.6   242     8.4   746.8    0.00 
 266    0:00   0.00   54.0    88    6.5   231    10.2   746.7    0.00 
 266    0:10   0.00   53.9    88    6.5   224    10.2   746.7    0.00 
 266    0:20   0.00   53.8    89    6.4   230     9.0   746.7    0.00 
 266    0:30   0.00   53.6    89    4.9   232     7.2   746.6    0.00 
 266    0:40   0.00   53.4    88    5.0   232     9.0   746.7    0.00 
 266    0:50   0.00   53.3    89    6.2   228     9.0   746.7    0.00 
 266    1:00   0.00   53.4    88    4.9   236     7.2   746.7    0.00 
 266    1:10   0.00   53.0    88    6.1   224     9.6   746.6    0.00 
 266    1:20   0.00   52.3    90    5.9   225     7.8   746.6    0.00 
 266    1:30   0.00   51.9    89    5.6   235     9.6   746.3    0.00 
 266    1:40   0.00   51.5    87    4.5   246     8.4   746.3    0.00 
 266    1:50   0.00   50.6    88    5.0   228     6.6   746.1    0.00 
 266    2:00   0.00   49.2    89    3.3   232     4.2   746.0    0.00 
 266    2:10   0.00   48.4    90    1.8   108     3.0   745.9    0.00 
 266    2:20   0.00   47.4    91    2.4   288     4.2   745.9    0.00 
 266    2:30   0.00   46.5    91    3.8   266     6.0   745.8    0.00 
 266    2:40   0.00   45.1    91    3.9   252     5.4   745.8    0.00 
 266    2:50   0.00   44.9    92    3.3   276     4.2   745.7    0.00 
 266    3:00   0.00   44.8    92    3.9   263     5.4   745.7    0.00 
 266    3:10   0.00   44.2    92    3.7   283     5.4   745.7    0.00 
 266    3:20   0.00   44.6    93    2.6   290     4.2   745.7    0.00 
 266    3:30   0.00   44.4    92    2.4   334     3.6   745.7    0.00 
 266    3:40   0.00   44.1    92    2.0    24     3.6   745.7    0.00 
 266    3:50   0.00   43.8    92    1.0    72     4.8   745.7    0.00 
 266    4:00   0.00   42.8    92    2.9   271     5.4   745.7    0.00 
 266    4:10   0.00   43.4    93    3.0   294     4.2   745.7    0.00 
 266    4:20   0.00   44.3    94    1.7   284     3.0   745.6    0.00 
 266    4:30   0.00   44.1    94    2.1   219     3.0   745.7    0.00 
 266    4:40   0.00   44.5    94    2.2   266     3.0   745.8    0.00 
 266    4:50   0.00   44.7    94    2.0   239     3.0   745.8    0.00 
 266    5:00   0.00   44.5    94    2.5   262     3.6   745.8    0.00 
 266    5:10   0.00   44.6    94    2.0   236     4.8   745.8    0.00 
 266    5:20   0.00   43.8    94    1.5   291     3.0   745.8    0.00 
 266    5:30   0.00   43.0    94    2.2   270     3.0   745.9    0.00 
 266    5:40   0.00   42.3    94    2.5   259     3.6   745.9    0.00 
 266    5:50   0.00   41.9    94    2.7   297     4.2   745.8    0.00 
 266    6:00   0.00   41.0    94    2.9    37     6.0   745.8    0.00 
 266    6:10   0.01   41.5    94    2.8   344     4.8   745.9    0.00 
 266    6:20   0.01   42.7    94    1.6   322     4.2   745.9    0.00 
 266    6:30   0.02   43.2    94    1.2   279     2.4   746.0    0.00 
 266    6:40   0.03   43.2    94    0.7     1     3.0   746.0    0.00 
 266    6:50   0.04   43.2    94    0.9    11     2.4   746.1    0.00 
 266    7:00   0.07   43.7    95    1.3   215     3.0   746.1    0.00 
 266    7:10   0.09   44.2    95    2.2   217     4.2   746.2    0.00 
 266    7:20   0.19   45.4    95    1.4   344     3.0   746.3    0.00 
 266    7:30   0.17   45.8    94    2.0    81     3.6   746.4    0.00 
 266    7:40   0.17   46.6    94    1.1    39     3.6   746.5    0.00 
 266    7:50   0.24   47.8    94    2.7    98     4.8   746.6    0.00 
 266    8:00   0.26   48.4    94    1.7    54     2.4   746.7    0.00 
 266    8:10   0.27   49.4    92    3.4    84     6.0   746.7    0.00 
 266    8:20   0.29   49.4    92    3.6    78     5.4   746.8    0.00 
 266    8:30   0.24   49.6    92    2.6    74     4.8   746.9    0.00 
 266    8:40   0.46   52.0    90    2.3   118     4.8   746.9    0.00 
 266    8:50   0.47   55.8    82    2.5   106     5.4   746.9    0.00 
 266    9:00   0.49   57.6    76    3.3    65     4.8   747.0    0.00 
 266    9:10   0.46   58.7    73    4.1    80     6.6   747.1    0.00 
 266    9:20   0.33   58.6    71    5.0    46     7.8   747.1    0.00 
 266    9:30   0.46   60.5    66    5.6    95     8.4   747.1    0.00 
 266    9:40   0.21   60.6    63    3.3    98     8.4   747.0    0.00 
 266    9:50   0.26   61.1    52    7.3   355    13.7   746.9    0.00 
 266   10:00   0.42   63.4    48    4.5    87     9.6   746.9    0.00 
 266   10:10   0.14   62.8    51    6.4   220    13.1   746.9    0.00 
 266   10:20   0.69   64.4    50    5.5   235    14.9   746.9    0.00 
 266   10:30   0.39   67.1    43   10.6   212    18.5   746.8    0.00 
 266   10:40   0.56   65.6    46   11.3   207    20.9   746.8    0.00 
 266   10:50   0.69   67.1    43   10.7   210    18.5   746.7    0.00 
 266   11:00   0.50   67.3    38    6.2   235    17.9   746.7    0.00 
 266   11:10   0.64   66.6    40    8.0   231    20.3   746.7    0.00 
 266   11:20   0.74   69.0    35    9.7   238    18.5   746.7    0.00 
 266   11:30   0.74   68.2    31    5.5   322    12.5   746.7    0.00 
 266   11:40   0.75   68.8    33    8.2   259    16.7   746.6    0.00 
 266   11:50   0.72   68.9    31    7.9   269    17.3   746.6    0.00 
 266   12:00   0.77   69.1    31    6.7   270    13.7   746.5    0.00 
 266   12:10   0.76   70.3    31    7.8   206    20.3   746.4    0.00 
 266   12:20   0.75   69.6    30    7.8   217    23.9   746.3    0.00 
 266   12:30   0.76   70.1    29    6.2   241    13.1   746.2    0.00 
 266   12:40   0.76   69.2    29    5.3   292    11.9   746.2    0.00 
 266   12:50   0.75   70.3    27    7.6   239    15.5   746.0    0.00 
 266   13:00   0.75   70.5    27    7.9   228    15.5   745.9    0.00 
 266   13:10   0.77   70.7    26    8.1   238    13.7   745.7    0.00 
 266   13:20   0.75   71.0    26   10.7   214    19.7   745.5    0.00 
 266   13:30   0.79   70.3    27    7.8   196    15.5   745.4    0.00 
 266   13:40   0.80   71.2    26   10.7   205    18.5   745.3    0.00 
 266   13:50   0.48   70.3    28    7.4   229    16.1   745.3    0.00 
 266   14:00   0.31   67.2    31    5.0   239    13.1   745.3    0.00 
 266   14:10   0.76   69.2    31    4.7   119    10.2   745.2    0.00 
 266   14:20   0.74   70.1    32    7.9   316    15.5   745.2    0.00 
 266   14:30   0.55   68.8    35    6.0   266    13.1   745.2    0.00 
 266   14:40   0.59   69.3    35    7.1   264    13.7   745.1    0.00 
 266   14:50   0.55   67.6    35    8.8   296    16.7   745.1    0.00 
 266   15:00   0.53   68.3    35    7.0   249    16.1   744.9    0.00 
 266   15:10   0.51   67.9    34    7.5   314    14.9   744.9    0.00 
 266   15:20   0.48   69.2    32    5.3   259    12.5   744.9    0.00 
 266   15:30   0.35   69.7    32    5.9   249    11.3   744.9    0.00 
 266   15:40   0.34   68.1    34    7.4   233    13.1   744.9    0.00 
 266   15:50   0.38   68.9    33    4.6   265    11.9   744.9    0.00 
 266   16:00   0.10   67.7    34    6.4   249    13.1   744.9    0.00 
 266   16:10   0.20   65.6    39    5.8   264     9.6   744.9    0.00 
 266   16:20   0.21   66.0    39    5.1   291    11.9   744.9    0.00 
 266   16:30   0.27   66.7    36    5.6   298    14.3   744.9    0.00 
 266   16:40   0.25   67.3    35    4.0   253     7.2   744.9    0.00 
 266   16:50   0.21   67.3    35    4.0   323    10.2   744.8    0.00 
 266   17:00   0.18   65.5    37    5.3   329     9.0   744.8    0.00 
 266   17:10   0.08   65.0    36    4.9   291    10.2   744.8    0.00 
 266   17:20   0.01   63.3    36    5.2   290    10.8   744.9    0.00 
 266   17:30   0.01   62.2    37    4.0   290     7.8   744.9    0.00 
 266   17:40   0.01   61.4    37    4.3   279     8.4   744.9    0.00 
 266   17:50   0.01   60.5    37    3.9   267     7.2   745.0    0.00 
 266   18:00   0.01   58.2    43    3.9   290     5.4   745.1    0.00 
 266   18:10   0.00   55.7    48    3.8   302     6.0   745.2    0.00 
 266   18:20   0.00   54.5    50    4.3   287     6.0   745.3    0.00 
 266   18:30   0.00   53.0    53    4.4   286     6.6   745.4    0.00 
 266   18:40   0.00   50.9    58    3.4   253     5.4   745.4    0.00 
 266   18:50   0.00   49.4    61    4.1   270     6.6   745.4    0.00 
 266   19:00   0.00   50.5    57    4.4   276     6.0   745.3    0.00 
 266   19:10   0.00   50.8    56    4.6   281     7.2   745.5    0.00 

Return to Headquarters, Valles Caldera graphs page.


Western Regional Climate Center,wrcc@dri.edu